createdAt,value
2019-03-24T00:00:24.547Z,7.20
2019-03-24T00:02:55.355Z,7.10
2019-03-24T00:05:26.107Z,7.00
2019-03-24T00:07:56.965Z,7.00
2019-03-24T00:10:27.473Z,7.00
2019-03-24T00:12:58.038Z,7.00
2019-03-24T00:15:28.343Z,7.00
2019-03-24T00:17:58.781Z,7.00
2019-03-24T00:20:29.309Z,7.00
2019-03-24T00:22:59.563Z,7.00
2019-03-24T00:25:29.947Z,7.00
2019-03-24T00:28:00.229Z,7.00
2019-03-24T00:30:30.840Z,7.00
2019-03-24T00:33:04.006Z,6.90
2019-03-24T00:35:34.620Z,6.90
2019-03-24T00:38:05.229Z,6.80
2019-03-24T00:40:35.888Z,6.80
2019-03-24T00:43:06.562Z,6.70
2019-03-24T00:45:37.567Z,6.70
2019-03-24T00:48:08.228Z,6.60
2019-03-24T00:50:38.517Z,6.60
2019-03-24T00:53:08.861Z,6.60
2019-03-24T00:55:39.767Z,6.50
2019-03-24T00:58:10.706Z,6.50
2019-03-24T01:00:45.648Z,6.40
2019-03-24T01:03:16.789Z,6.40
2019-03-24T01:05:47.435Z,6.40
2019-03-24T01:08:18.011Z,6.50
2019-03-24T01:10:48.695Z,6.40
2019-03-24T01:13:19.144Z,6.50
2019-03-24T01:15:49.794Z,6.50
2019-03-24T01:18:20.059Z,6.50
2019-03-24T01:20:50.458Z,6.60
2019-03-24T01:23:23.226Z,6.70
2019-03-24T01:25:53.613Z,6.50
2019-03-24T01:28:24.231Z,6.40
2019-03-24T01:30:54.925Z,6.20
2019-03-24T01:33:25.927Z,6.20
2019-03-24T01:36:02.566Z,6.10
2019-03-24T01:38:33.603Z,6.00
2019-03-24T01:41:04.138Z,6.00
2019-03-24T01:43:34.951Z,6.00
2019-03-24T01:46:05.551Z,6.00
2019-03-24T01:48:36.259Z,6.10
2019-03-24T01:51:06.844Z,6.10
2019-03-24T01:53:37.062Z,5.90
2019-03-24T01:56:07.736Z,5.90
2019-03-24T01:58:38.745Z,5.80
2019-03-24T02:01:09.623Z,5.80
2019-03-24T02:03:39.893Z,5.80
2019-03-24T02:06:14.035Z,5.80
2019-03-24T02:08:44.630Z,5.60
2019-03-24T02:11:16.704Z,5.60
2019-03-24T02:13:47.017Z,5.70
2019-03-24T02:16:17.755Z,5.70
2019-03-24T02:18:50.881Z,5.60
2019-03-24T02:21:21.807Z,5.60
2019-03-24T02:23:52.446Z,5.60
2019-03-24T02:26:23.021Z,5.60
2019-03-24T02:28:56.177Z,5.60
2019-03-24T02:31:26.842Z,5.60
2019-03-24T02:33:57.207Z,5.80
2019-03-24T02:36:29.728Z,5.70
2019-03-24T02:39:00.699Z,5.60
2019-03-24T02:41:31.295Z,5.60
2019-03-24T02:44:05.118Z,5.50
2019-03-24T02:46:35.635Z,5.40
2019-03-24T02:49:06.486Z,5.30
2019-03-24T02:51:36.824Z,5.30
2019-03-24T02:54:07.389Z,5.30
2019-03-24T02:56:38.012Z,5.20
2019-03-24T02:59:08.849Z,5.20
2019-03-24T03:01:39.321Z,5.20
2019-03-24T03:04:10.262Z,5.20
2019-03-24T03:06:40.604Z,5.10
2019-03-24T03:09:11.316Z,5.20
2019-03-24T03:11:41.943Z,5.10
2019-03-24T03:14:14.634Z,5.20
2019-03-24T03:16:45.244Z,5.20
2019-03-24T03:19:18.669Z,5.10
2019-03-24T03:21:51.310Z,5.00
2019-03-24T03:24:22.010Z,5.00
2019-03-24T03:26:52.385Z,4.90
2019-03-24T03:29:23.102Z,4.90
2019-03-24T03:31:56.793Z,4.90
2019-03-24T03:34:27.164Z,4.90
2019-03-24T03:36:57.811Z,4.80
2019-03-24T03:39:28.178Z,4.90
2019-03-24T03:42:00.880Z,4.90
2019-03-24T03:44:34.245Z,5.00
2019-03-24T03:47:04.964Z,5.20
2019-03-24T03:49:35.942Z,5.10
2019-03-24T03:52:06.816Z,5.00
2019-03-24T03:54:37.713Z,5.00
2019-03-24T03:57:08.377Z,4.90
2019-03-24T03:59:38.989Z,4.90
2019-03-24T04:02:09.483Z,4.90
2019-03-24T04:04:42.722Z,4.80
2019-03-24T04:07:13.342Z,4.80
2019-03-24T04:09:44.637Z,4.80
2019-03-24T04:12:16.090Z,4.80
2019-03-24T04:14:51.199Z,4.70
2019-03-24T04:17:23.202Z,4.80
2019-03-24T04:19:53.610Z,4.80
2019-03-24T04:22:24.534Z,4.70
2019-03-24T04:24:55.024Z,4.70
2019-03-24T04:27:26.043Z,4.70
2019-03-24T04:29:57.933Z,4.60
2019-03-24T04:32:28.321Z,4.60
2019-03-24T04:34:58.851Z,4.50
2019-03-24T04:37:33.044Z,4.50
2019-03-24T04:40:03.179Z,4.60
2019-03-24T04:42:33.471Z,4.60
2019-03-24T04:45:04.329Z,4.60
2019-03-24T04:47:37.593Z,4.60
2019-03-24T04:50:07.718Z,4.60
2019-03-24T04:52:38.364Z,4.60
2019-03-24T04:55:10.999Z,4.60
2019-03-24T04:57:41.264Z,4.50
2019-03-24T05:00:15.031Z,4.50
2019-03-24T05:02:45.537Z,4.50
2019-03-24T05:05:16.660Z,4.50
2019-03-24T05:07:47.105Z,4.50
2019-03-24T05:10:28.745Z,4.40
2019-03-24T05:13:02.658Z,4.40
2019-03-24T05:15:33.264Z,4.40
2019-03-24T05:18:04.022Z,4.50
2019-03-24T05:20:34.517Z,4.50
2019-03-24T05:23:05.292Z,4.60
2019-03-24T05:25:36.238Z,4.50
2019-03-24T05:28:08.730Z,4.50
2019-03-24T05:30:39.377Z,4.60
2019-03-24T05:33:10.105Z,4.60
2019-03-24T05:35:40.733Z,4.50
2019-03-24T05:38:11.585Z,4.40
2019-03-24T05:40:44.830Z,4.50
2019-03-24T05:43:15.710Z,4.40
2019-03-24T05:45:47.576Z,4.30
2019-03-24T05:48:19.947Z,4.30
2019-03-24T05:50:50.942Z,4.40
2019-03-24T05:53:21.318Z,4.30
2019-03-24T05:55:51.586Z,4.20
2019-03-24T05:58:22.635Z,4.20
2019-03-24T06:00:53.718Z,4.20
2019-03-24T06:03:27.621Z,4.20
2019-03-24T06:05:58.162Z,4.20
2019-03-24T06:08:29.293Z,4.30
2019-03-24T06:11:02.558Z,4.40
2019-03-24T06:13:33.271Z,4.60
2019-03-24T06:16:06.699Z,4.50
2019-03-24T06:18:37.105Z,4.50
2019-03-24T06:21:07.711Z,4.50
2019-03-24T06:23:38.229Z,4.60
2019-03-24T06:26:08.874Z,4.70
2019-03-24T06:28:39.267Z,4.70
2019-03-24T06:31:09.740Z,4.70
2019-03-24T06:33:40.241Z,4.80
2019-03-24T06:36:10.570Z,4.70
2019-03-24T06:38:41.578Z,4.90
2019-03-24T06:41:14.919Z,5.00
2019-03-24T06:43:46.259Z,5.00
2019-03-24T06:46:22.154Z,5.10
2019-03-24T06:48:53.185Z,5.30
2019-03-24T06:51:25.970Z,5.50
2019-03-24T06:53:55.947Z,5.60
2019-03-24T06:56:26.617Z,5.70
2019-03-24T06:58:58.394Z,5.80
2019-03-24T07:01:30.145Z,5.90
2019-03-24T07:04:00.712Z,6.10
2019-03-24T07:06:32.074Z,6.00
2019-03-24T07:09:07.754Z,6.10
2019-03-24T07:11:38.373Z,6.30
2019-03-24T07:14:09.192Z,6.40
2019-03-24T07:16:39.950Z,6.50
2019-03-24T07:19:10.422Z,6.60
2019-03-24T07:21:41.086Z,6.70
2019-03-24T07:24:11.950Z,6.90
2019-03-24T07:26:42.244Z,7.10
2019-03-24T07:29:15.582Z,7.20
2019-03-24T07:31:49.855Z,7.40
2019-03-24T07:34:21.508Z,7.60
2019-03-24T07:36:51.774Z,7.80
2019-03-24T07:39:22.248Z,8.00
2019-03-24T07:41:53.131Z,8.10
2019-03-24T07:44:23.838Z,8.10
2019-03-24T07:46:57.708Z,8.20
2019-03-24T07:49:28.351Z,8.30
2019-03-24T07:51:58.962Z,8.30
2019-03-24T07:54:29.883Z,8.30
2019-03-24T07:57:00.730Z,8.40
2019-03-24T07:59:31.282Z,8.50
2019-03-24T08:02:01.970Z,8.50
2019-03-24T08:04:33.066Z,8.70
2019-03-24T08:07:03.346Z,8.80
2019-03-24T08:09:33.613Z,8.90
2019-03-24T08:12:03.893Z,8.80
2019-03-24T08:14:34.482Z,8.90
2019-03-24T08:17:05.809Z,8.90
2019-03-24T08:19:36.216Z,9.10
2019-03-24T08:22:06.581Z,9.30
2019-03-24T08:24:37.265Z,9.40
2019-03-24T08:27:07.513Z,9.50
2019-03-24T08:29:38.001Z,9.60
2019-03-24T08:32:08.564Z,9.60
2019-03-24T08:34:38.831Z,9.70
2019-03-24T08:37:09.427Z,9.80
2019-03-24T08:39:43.188Z,9.70
2019-03-24T08:42:13.477Z,9.70
2019-03-24T08:44:44.138Z,9.70
2019-03-24T08:47:14.779Z,10.00
2019-03-24T08:49:45.365Z,9.90
2019-03-24T08:52:16.129Z,10.00
2019-03-24T08:54:46.547Z,10.00
2019-03-24T08:57:16.870Z,10.20
2019-03-24T08:59:47.130Z,10.40
2019-03-24T09:02:17.769Z,10.30
2019-03-24T09:04:48.035Z,10.40
2019-03-24T09:07:18.330Z,10.40
2019-03-24T09:09:48.676Z,10.50
2019-03-24T09:12:19.375Z,10.70
2019-03-24T09:14:49.683Z,10.70
2019-03-24T09:17:20.262Z,10.80
2019-03-24T09:19:50.620Z,10.90
2019-03-24T09:22:21.204Z,11.00
2019-03-24T09:24:52.151Z,11.20
2019-03-24T09:27:22.714Z,11.30
2019-03-24T09:29:52.964Z,11.40
2019-03-24T09:32:23.426Z,11.40
2019-03-24T09:34:53.751Z,11.60
2019-03-24T09:37:24.340Z,11.80
2019-03-24T09:39:54.927Z,12.10
2019-03-24T09:42:25.248Z,12.40
2019-03-24T09:44:55.548Z,12.70
2019-03-24T09:47:25.835Z,13.00
2019-03-24T09:49:56.094Z,13.10
2019-03-24T09:52:26.661Z,13.70
2019-03-24T09:54:56.923Z,14.60
2019-03-24T09:57:27.524Z,14.60
2019-03-24T09:59:58.004Z,14.80
2019-03-24T10:02:30.673Z,15.10
2019-03-24T10:05:01.806Z,15.50
2019-03-24T10:07:32.773Z,15.50
2019-03-24T10:10:07.166Z,15.60
2019-03-24T10:12:39.230Z,16.00
2019-03-24T10:15:10.140Z,16.20
2019-03-24T10:17:40.700Z,16.50
2019-03-24T10:20:11.525Z,16.70
2019-03-24T10:22:44.138Z,16.90
2019-03-24T10:25:17.071Z,17.10
2019-03-24T10:27:47.425Z,16.90
2019-03-24T10:30:21.920Z,16.70
2019-03-24T10:32:53.439Z,16.70
2019-03-24T10:35:26.055Z,17.00
2019-03-24T10:37:56.726Z,17.30
2019-03-24T10:40:28.791Z,17.50
2019-03-24T10:42:59.579Z,17.70
2019-03-24T10:45:29.899Z,17.80
2019-03-24T10:48:00.252Z,17.60
2019-03-24T10:50:30.903Z,17.80
2019-03-24T10:53:02.143Z,17.90
2019-03-24T10:55:36.393Z,17.60
2019-03-24T10:58:07.027Z,17.90
2019-03-24T11:00:44.746Z,18.00
2019-03-24T11:03:17.058Z,18.00
2019-03-24T11:05:53.513Z,18.30
2019-03-24T11:08:24.401Z,18.50
2019-03-24T11:10:57.128Z,18.10
2019-03-24T11:13:27.907Z,18.40
2019-03-24T11:15:59.612Z,18.30
2019-03-24T11:18:31.306Z,18.60
2019-03-24T11:21:03.042Z,18.60
2019-03-24T11:23:35.636Z,18.50
2019-03-24T11:26:06.323Z,18.90
2019-03-24T11:28:37.095Z,18.60
2019-03-24T11:31:08.026Z,18.60
2019-03-24T11:33:38.625Z,18.60
2019-03-24T11:36:09.099Z,18.80
2019-03-24T11:38:39.786Z,18.80
2019-03-24T11:41:10.165Z,19.20
2019-03-24T11:43:40.739Z,19.20
2019-03-24T11:46:11.088Z,19.40
2019-03-24T11:48:41.674Z,19.10
2019-03-24T11:51:12.134Z,19.30
2019-03-24T11:53:42.601Z,19.80
2019-03-24T11:56:13.078Z,19.90
2019-03-24T11:58:43.453Z,19.60
2019-03-24T12:01:14.572Z,19.60
2019-03-24T12:03:45.103Z,19.80
2019-03-24T12:06:15.464Z,20.10
2019-03-24T12:08:46.068Z,19.90
2019-03-24T12:11:16.884Z,19.80
2019-03-24T12:13:47.616Z,20.40
2019-03-24T12:16:18.510Z,20.30
2019-03-24T12:18:49.079Z,20.50
2019-03-24T12:21:19.647Z,20.80
2019-03-24T12:23:50.241Z,20.50
2019-03-24T12:26:20.639Z,21.00
2019-03-24T12:28:51.830Z,21.30
2019-03-24T12:31:22.203Z,21.90
2019-03-24T12:33:52.535Z,20.90
2019-03-24T12:36:23.151Z,21.00
2019-03-24T12:38:53.446Z,21.20
2019-03-24T12:41:24.228Z,20.80
2019-03-24T12:43:54.610Z,20.40
2019-03-24T12:46:24.924Z,19.90
2019-03-24T12:48:55.392Z,20.50
2019-03-24T12:51:27.058Z,20.50
2019-03-24T12:53:57.456Z,20.00
2019-03-24T12:56:27.959Z,20.20
2019-03-24T12:58:58.881Z,20.50
2019-03-24T13:01:29.498Z,20.90
2019-03-24T13:03:59.859Z,21.20
2019-03-24T13:06:30.374Z,21.30
2019-03-24T13:09:00.802Z,21.20
2019-03-24T13:11:31.187Z,21.50
2019-03-24T13:14:01.456Z,21.60
2019-03-24T13:16:32.435Z,21.10
2019-03-24T13:19:03.625Z,20.90
2019-03-24T13:21:34.360Z,21.20
2019-03-24T13:24:04.811Z,21.30
2019-03-24T13:26:35.360Z,21.80
2019-03-24T13:29:05.869Z,21.80
2019-03-24T13:31:36.491Z,21.80
2019-03-24T13:34:07.255Z,21.90
2019-03-24T13:36:37.930Z,21.70
2019-03-24T13:39:08.886Z,20.60
2019-03-24T13:41:39.501Z,21.00
2019-03-24T13:44:10.443Z,21.20
2019-03-24T13:46:42.019Z,21.50
2019-03-24T13:49:13.039Z,21.70
2019-03-24T13:51:43.475Z,21.70
2019-03-24T13:54:14.123Z,21.60
2019-03-24T13:56:45.084Z,21.30
2019-03-24T13:59:16.106Z,21.00
2019-03-24T14:01:47.267Z,21.50
2019-03-24T14:04:18.353Z,21.00
2019-03-24T14:06:49.815Z,20.70
2019-03-24T14:09:20.924Z,20.60
2019-03-24T14:11:52.045Z,20.60
2019-03-24T14:14:23.198Z,20.80
2019-03-24T14:16:54.376Z,21.10
2019-03-24T14:19:25.887Z,20.60
2019-03-24T14:21:56.696Z,20.90
2019-03-24T14:24:27.763Z,21.10
2019-03-24T14:26:59.067Z,21.20
2019-03-24T14:29:30.054Z,21.20
2019-03-24T14:32:01.345Z,20.50
2019-03-24T14:34:32.334Z,20.50
2019-03-24T14:37:03.631Z,20.50
2019-03-24T14:39:34.616Z,19.30
2019-03-24T14:42:05.134Z,19.60
2019-03-24T14:44:36.150Z,19.50
2019-03-24T14:47:06.618Z,19.70
2019-03-24T14:49:36.950Z,19.60
2019-03-24T14:52:07.669Z,19.30
2019-03-24T14:54:38.415Z,19.30
2019-03-24T14:57:09.368Z,18.70
2019-03-24T14:59:40.105Z,18.10
2019-03-24T15:02:11.040Z,17.80
2019-03-24T15:04:41.695Z,17.60
2019-03-24T15:07:11.956Z,17.90
2019-03-24T15:09:42.519Z,17.90
2019-03-24T15:12:13.222Z,17.90
2019-03-24T15:14:43.462Z,17.80
2019-03-24T15:17:13.749Z,17.50
2019-03-24T15:19:44.423Z,17.30
2019-03-24T15:22:15.123Z,17.20
2019-03-24T15:24:45.484Z,17.00
2019-03-24T15:27:16.020Z,17.00
2019-03-24T15:29:46.482Z,17.00
2019-03-24T15:32:17.149Z,16.90
2019-03-24T15:34:47.510Z,16.80
2019-03-24T15:37:18.040Z,16.80
2019-03-24T15:39:49.486Z,16.70
2019-03-24T15:42:19.847Z,16.50
2019-03-24T15:44:50.510Z,16.80
2019-03-24T15:47:21.678Z,17.10
2019-03-24T15:49:52.308Z,17.20
2019-03-24T15:52:22.575Z,17.10
2019-03-24T15:54:53.055Z,16.80
2019-03-24T15:57:23.614Z,16.50
2019-03-24T15:59:54.253Z,16.90
2019-03-24T16:02:24.683Z,16.90
2019-03-24T16:05:04.623Z,16.70
2019-03-24T16:07:35.157Z,16.40
2019-03-24T16:10:05.854Z,16.20
2019-03-24T16:12:36.262Z,16.20
2019-03-24T16:15:07.612Z,16.20
2019-03-24T16:17:37.917Z,16.20
2019-03-24T16:20:08.729Z,16.30
2019-03-24T16:22:39.831Z,16.10
2019-03-24T16:25:10.357Z,15.70
2019-03-24T16:27:40.696Z,15.50
2019-03-24T16:30:11.793Z,15.70
2019-03-24T16:32:42.183Z,15.90
2019-03-24T16:35:13.184Z,15.90
2019-03-24T16:37:45.638Z,15.90
2019-03-24T16:40:16.304Z,15.80
2019-03-24T16:42:46.859Z,15.40
2019-03-24T16:45:17.357Z,15.30
2019-03-24T16:47:47.973Z,15.00
2019-03-24T16:50:18.528Z,15.00
2019-03-24T16:52:49.180Z,15.00
2019-03-24T16:55:19.743Z,15.20
2019-03-24T16:57:50.419Z,15.10
2019-03-24T17:00:20.916Z,14.90
2019-03-24T17:02:51.758Z,14.90
2019-03-24T17:05:22.313Z,14.80
2019-03-24T17:07:52.851Z,14.60
2019-03-24T17:10:23.484Z,14.60
2019-03-24T17:12:53.983Z,14.50
2019-03-24T17:15:24.629Z,14.30
2019-03-24T17:17:55.739Z,14.40
2019-03-24T17:20:26.392Z,14.20
2019-03-24T17:22:56.846Z,14.00
2019-03-24T17:25:27.606Z,13.80
2019-03-24T17:27:58.247Z,13.70
2019-03-24T17:30:29.035Z,13.70
2019-03-24T17:32:59.633Z,13.60
2019-03-24T17:35:29.989Z,13.50
2019-03-24T17:38:00.739Z,13.60
2019-03-24T17:40:31.045Z,13.60
2019-03-24T17:43:02.608Z,13.70
2019-03-24T17:45:32.995Z,13.50
2019-03-24T17:48:03.943Z,13.30
2019-03-24T17:50:34.490Z,13.20
2019-03-24T17:53:06.789Z,13.10
2019-03-24T17:55:37.481Z,13.20
2019-03-24T17:58:07.956Z,13.00
2019-03-24T18:00:41.048Z,13.00
2019-03-24T18:03:11.714Z,12.90
2019-03-24T18:05:42.080Z,12.80
2019-03-24T18:08:12.759Z,12.90
2019-03-24T18:10:43.231Z,12.80
2019-03-24T18:13:13.544Z,12.70
2019-03-24T18:15:44.790Z,12.60
2019-03-24T18:18:15.209Z,12.50
2019-03-24T18:20:45.562Z,12.40
2019-03-24T18:23:16.619Z,12.10
2019-03-24T18:25:47.022Z,12.00
2019-03-24T18:28:17.630Z,12.00
2019-03-24T18:30:48.035Z,11.90
2019-03-24T18:33:18.616Z,11.80
2019-03-24T18:35:49.432Z,11.70
2019-03-24T18:38:20.346Z,11.50
2019-03-24T18:40:50.761Z,11.40
2019-03-24T18:43:21.173Z,11.40
2019-03-24T18:45:52.249Z,11.30
2019-03-24T18:48:23.006Z,11.30
2019-03-24T18:50:53.330Z,11.20
2019-03-24T18:53:23.847Z,11.10
2019-03-24T18:55:54.502Z,11.00
2019-03-24T18:58:25.346Z,11.10
2019-03-24T19:00:55.827Z,11.00
2019-03-24T19:03:26.333Z,11.00
2019-03-24T19:05:57.011Z,11.00
2019-03-24T19:08:27.611Z,10.90
2019-03-24T19:10:57.968Z,10.80
2019-03-24T19:13:28.475Z,10.90
2019-03-24T19:15:59.430Z,11.00
2019-03-24T19:18:29.786Z,10.90
2019-03-24T19:21:00.133Z,10.90
2019-03-24T19:23:30.710Z,11.00
2019-03-24T19:26:02.026Z,11.00
2019-03-24T19:28:32.399Z,11.10
2019-03-24T19:31:06.312Z,11.00
2019-03-24T19:33:39.986Z,11.00
2019-03-24T19:36:11.762Z,11.10
2019-03-24T19:38:43.166Z,11.00
2019-03-24T19:41:14.023Z,10.90
2019-03-24T19:43:45.141Z,11.00
2019-03-24T19:46:15.503Z,11.10
2019-03-24T19:48:45.858Z,11.10
2019-03-24T19:51:16.293Z,11.00
2019-03-24T19:53:46.657Z,10.90
2019-03-24T19:56:17.123Z,10.80
2019-03-24T19:58:47.461Z,10.80
2019-03-24T20:01:18.119Z,10.90
2019-03-24T20:03:48.763Z,10.90
2019-03-24T20:06:19.634Z,10.90
2019-03-24T20:08:50.996Z,10.80
2019-03-24T20:11:21.510Z,10.80
2019-03-24T20:13:51.827Z,10.80
2019-03-24T20:16:22.628Z,10.70
2019-03-24T20:18:53.131Z,10.60
2019-03-24T20:21:23.670Z,10.60
2019-03-24T20:23:53.934Z,10.70
2019-03-24T20:26:24.491Z,10.60
2019-03-24T20:28:54.797Z,10.50
2019-03-24T20:31:25.241Z,10.40
2019-03-24T20:33:55.944Z,10.20
2019-03-24T20:36:26.710Z,10.00
2019-03-24T20:38:57.118Z,9.90
2019-03-24T20:41:27.468Z,9.70
2019-03-24T20:43:58.219Z,9.80
2019-03-24T20:46:28.786Z,9.80
2019-03-24T20:48:59.093Z,9.70
2019-03-24T20:51:29.722Z,9.70
2019-03-24T20:54:00.042Z,9.60
2019-03-24T20:56:30.396Z,9.40
2019-03-24T20:59:00.782Z,9.40
2019-03-24T21:01:31.363Z,9.20
2019-03-24T21:04:02.024Z,9.10
2019-03-24T21:06:32.346Z,9.10
2019-03-24T21:09:03.623Z,9.00
2019-03-24T21:11:34.049Z,8.90
2019-03-24T21:14:04.554Z,8.90
2019-03-24T21:16:35.360Z,8.80
2019-03-24T21:19:07.901Z,8.80
2019-03-24T21:21:40.950Z,8.70
2019-03-24T21:24:11.886Z,8.70
2019-03-24T21:26:44.390Z,8.70
2019-03-24T21:29:19.333Z,8.70
2019-03-24T21:31:50.154Z,8.70
2019-03-24T21:34:23.379Z,8.60
2019-03-24T21:36:54.014Z,8.60
2019-03-24T21:39:26.234Z,8.60
2019-03-24T21:41:56.870Z,8.50
2019-03-24T21:44:28.065Z,8.40
2019-03-24T21:47:00.086Z,8.50
2019-03-24T21:49:31.031Z,8.40
2019-03-24T21:52:01.595Z,8.40
2019-03-24T21:54:32.165Z,8.50
2019-03-24T21:57:02.613Z,8.50
2019-03-24T21:59:32.867Z,8.50
2019-03-24T22:02:05.064Z,8.60
2019-03-24T22:04:36.669Z,8.50
2019-03-24T22:07:07.255Z,8.60
2019-03-24T22:09:37.686Z,8.60
2019-03-24T22:12:08.346Z,8.60
2019-03-24T22:14:38.947Z,8.60
2019-03-24T22:17:09.865Z,8.70
2019-03-24T22:19:40.331Z,8.70
2019-03-24T22:22:10.755Z,8.80
2019-03-24T22:24:41.335Z,8.90
2019-03-24T22:27:33.116Z,9.00
2019-03-24T22:30:03.834Z,9.00
2019-03-24T22:32:34.147Z,9.10
2019-03-24T22:35:04.698Z,9.10
2019-03-24T22:37:35.131Z,9.10
2019-03-24T22:40:06.347Z,9.10
2019-03-24T22:42:37.125Z,9.20
2019-03-24T22:45:07.885Z,9.20
2019-03-24T22:47:38.786Z,9.10
2019-03-24T22:50:09.687Z,9.10
2019-03-24T22:52:40.276Z,9.20
2019-03-24T22:55:10.773Z,9.20
2019-03-24T22:57:41.294Z,9.20
2019-03-24T23:00:18.270Z,9.10
2019-03-24T23:02:48.800Z,9.20
2019-03-24T23:05:19.549Z,9.20
2019-03-24T23:07:50.321Z,9.20
2019-03-24T23:10:20.585Z,9.30
2019-03-24T23:12:50.987Z,9.30
2019-03-24T23:15:21.852Z,9.30
2019-03-24T23:17:52.380Z,9.20
2019-03-24T23:20:23.318Z,9.30
2019-03-24T23:22:53.718Z,9.30
2019-03-24T23:25:24.062Z,9.30
2019-03-24T23:27:55.474Z,9.30
2019-03-24T23:30:25.914Z,9.30
2019-03-24T23:32:56.498Z,9.40
2019-03-24T23:35:27.078Z,9.40
2019-03-24T23:37:57.606Z,9.30
2019-03-24T23:40:27.954Z,9.40
2019-03-24T23:42:58.360Z,9.40
2019-03-24T23:45:28.726Z,9.40
2019-03-24T23:47:59.223Z,9.50
2019-03-24T23:50:29.774Z,9.50
2019-03-24T23:53:00.187Z,9.50
2019-03-24T23:55:30.730Z,9.40
2019-03-24T23:58:01.342Z,9.50
